sensor_id;sensor_type;location;lat;lon;timestamp;temperature;humidity
26745;DHT22;14342;50.960;13.880;2023-06-19T00:01:00;19.30;99.90
26745;DHT22;14342;50.960;13.880;2023-06-19T00:02:01;19.30;99.90
26745;DHT22;14342;50.960;13.880;2023-06-19T00:03:02;19.40;99.90
26745;DHT22;14342;50.960;13.880;2023-06-19T00:04:04;19.40;99.90
26745;DHT22;14342;50.960;13.880;2023-06-19T00:05:04;19.40;99.90
26745;DHT22;14342;50.960;13.880;2023-06-19T00:06:06;19.50;99.90
26745;DHT22;14342;50.960;13.880;2023-06-19T00:07:07;19.50;99.90
26745;DHT22;14342;50.960;13.880;2023-06-19T00:08:09;19.50;99.90
26745;DHT22;14342;50.960;13.880;2023-06-19T00:09:10;19.50;99.90
26745;DHT22;14342;50.960;13.880;2023-06-19T00:10:12;19.60;99.90
26745;DHT22;14342;50.960;13.880;2023-06-19T00:11:12;19.60;99.90
26745;DHT22;14342;50.960;13.880;2023-06-19T00:12:14;19.60;99.90
26745;DHT22;14342;50.960;13.880;2023-06-19T00:13:14;19.60;99.90
26745;DHT22;14342;50.960;13.880;2023-06-19T00:14:16;19.60;99.90
26745;DHT22;14342;50.960;13.880;2023-06-19T00:15:17;19.60;99.90
26745;DHT22;14342;50.960;13.880;2023-06-19T00:16:19;19.70;99.90
26745;DHT22;14342;50.960;13.880;2023-06-19T00:17:20;19.70;99.90
26745;DHT22;14342;50.960;13.880;2023-06-19T00:18:21;19.70;99.90
26745;DHT22;14342;50.960;13.880;2023-06-19T00:19:22;19.70;99.90
26745;DHT22;14342;50.960;13.880;2023-06-19T00:20:23;19.70;99.90
26745;DHT22;14342;50.960;13.880;2023-06-19T00:21:24;19.70;99.90
26745;DHT22;14342;50.960;13.880;2023-06-19T00:22:26;19.70;99.90
26745;DHT22;14342;50.960;13.880;2023-06-19T00:23:28;19.80;99.90
26745;DHT22;14342;50.960;13.880;2023-06-19T00:24:30;19.80;99.90
26745;DHT22;14342;50.960;13.880;2023-06-19T00:25:30;19.80;99.90
26745;DHT22;14342;50.960;13.880;2023-06-19T00:26:32;19.90;99.90
26745;DHT22;14342;50.960;13.880;2023-06-19T00:27:32;19.90;99.90
26745;DHT22;14342;50.960;13.880;2023-06-19T00:28:34;19.90;99.90
26745;DHT22;14342;50.960;13.880;2023-06-19T00:29:35;19.90;99.90
26745;DHT22;14342;50.960;13.880;2023-06-19T00:30:36;19.90;99.90
26745;DHT22;14342;50.960;13.880;2023-06-19T00:31:37;19.90;99.90
26745;DHT22;14342;50.960;13.880;2023-06-19T00:32:38;19.80;99.90
26745;DHT22;14342;50.960;13.880;2023-06-19T00:33:46;19.80;99.90
26745;DHT22;14342;50.960;13.880;2023-06-19T00:34:48;19.80;99.90
26745;DHT22;14342;50.960;13.880;2023-06-19T00:35:49;19.80;99.90
26745;DHT22;14342;50.960;13.880;2023-06-19T00:36:51;19.80;99.90
26745;DHT22;14342;50.960;13.880;2023-06-19T00:37:56;19.80;99.90
26745;DHT22;14342;50.960;13.880;2023-06-19T00:39:02;19.80;99.90
26745;DHT22;14342;50.960;13.880;2023-06-19T00:40:03;19.70;99.90
26745;DHT22;14342;50.960;13.880;2023-06-19T00:41:05;19.70;99.90
26745;DHT22;14342;50.960;13.880;2023-06-19T00:42:06;19.70;99.90
26745;DHT22;14342;50.960;13.880;2023-06-19T00:43:08;19.70;99.90
26745;DHT22;14342;50.960;13.880;2023-06-19T00:44:09;19.70;99.90
26745;DHT22;14342;50.960;13.880;2023-06-19T00:45:10;19.70;99.90
26745;DHT22;14342;50.960;13.880;2023-06-19T00:46:11;19.80;99.90
26745;DHT22;14342;50.960;13.880;2023-06-19T00:47:13;19.70;99.90
26745;DHT22;14342;50.960;13.880;2023-06-19T00:48:14;19.70;99.90
26745;DHT22;14342;50.960;13.880;2023-06-19T00:49:16;19.70;99.90
26745;DHT22;14342;50.960;13.880;2023-06-19T00:50:17;19.70;99.90
26745;DHT22;14342;50.960;13.880;2023-06-19T00:51:18;19.70;99.90
26745;DHT22;14342;50.960;13.880;2023-06-19T00:52:19;19.70;99.90
26745;DHT22;14342;50.960;13.880;2023-06-19T00:53:21;19.80;99.90
26745;DHT22;14342;50.960;13.880;2023-06-19T00:54:23;19.80;99.90
26745;DHT22;14342;50.960;13.880;2023-06-19T00:55:26;19.80;99.90
26745;DHT22;14342;50.960;13.880;2023-06-19T00:56:28;19.80;99.90
26745;DHT22;14342;50.960;13.880;2023-06-19T00:57:30;19.80;99.90
26745;DHT22;14342;50.960;13.880;2023-06-19T00:58:30;19.80;99.90
26745;DHT22;14342;50.960;13.880;2023-06-19T00:59:32;19.80;99.90
26745;DHT22;14342;50.960;13.880;2023-06-19T01:00:33;19.80;99.90
26745;DHT22;14342;50.960;13.880;2023-06-19T01:01:34;19.80;99.90
26745;DHT22;14342;50.960;13.880;2023-06-19T01:02:35;19.80;99.90
26745;DHT22;14342;50.960;13.880;2023-06-19T01:03:36;19.70;99.90
26745;DHT22;14342;50.960;13.880;2023-06-19T01:04:38;19.70;99.90
26745;DHT22;14342;50.960;13.880;2023-06-19T01:05:38;19.70;99.90
26745;DHT22;14342;50.960;13.880;2023-06-19T01:06:42;19.70;99.90
26745;DHT22;14342;50.960;13.880;2023-06-19T01:07:46;19.80;99.90
26745;DHT22;14342;50.960;13.880;2023-06-19T01:08:51;19.70;99.90
26745;DHT22;14342;50.960;13.880;2023-06-19T01:09:57;19.80;99.90
26745;DHT22;14342;50.960;13.880;2023-06-19T01:11:00;19.80;99.90
26745;DHT22;14342;50.960;13.880;2023-06-19T01:12:04;19.80;99.90
26745;DHT22;14342;50.960;13.880;2023-06-19T01:13:09;19.80;99.90
26745;DHT22;14342;50.960;13.880;2023-06-19T01:14:12;19.60;99.90
26745;DHT22;14342;50.960;13.880;2023-06-19T01:15:15;19.60;99.90
26745;DHT22;14342;50.960;13.880;2023-06-19T01:16:16;19.60;99.90
26745;DHT22;14342;50.960;13.880;2023-06-19T01:17:18;19.50;99.90
26745;DHT22;14342;50.960;13.880;2023-06-19T01:18:19;19.40;99.90
26745;DHT22;14342;50.960;13.880;2023-06-19T01:19:21;19.40;99.90
26745;DHT22;14342;50.960;13.880;2023-06-19T01:20:21;19.30;99.90
26745;DHT22;14342;50.960;13.880;2023-06-19T01:21:23;19.30;99.90
26745;DHT22;14342;50.960;13.880;2023-06-19T01:22:28;19.30;99.90
26745;DHT22;14342;50.960;13.880;2023-06-19T01:23:30;19.10;99.90
26745;DHT22;14342;50.960;13.880;2023-06-19T01:24:31;19.00;99.90
26745;DHT22;14342;50.960;13.880;2023-06-19T01:25:32;19.00;99.90
26745;DHT22;14342;50.960;13.880;2023-06-19T01:26:33;19.00;99.90
26745;DHT22;14342;50.960;13.880;2023-06-19T01:27:34;19.00;99.90
26745;DHT22;14342;50.960;13.880;2023-06-19T01:28:35;18.90;99.90
26745;DHT22;14342;50.960;13.880;2023-06-19T01:29:38;18.90;99.90
26745;DHT22;14342;50.960;13.880;2023-06-19T01:30:40;19.00;99.90
26745;DHT22;14342;50.960;13.880;2023-06-19T01:31:45;19.00;99.90
26745;DHT22;14342;50.960;13.880;2023-06-19T01:32:51;19.00;99.90
26745;DHT22;14342;50.960;13.880;2023-06-19T01:33:54;19.00;99.90
26745;DHT22;14342;50.960;13.880;2023-06-19T01:34:56;19.10;99.90
26745;DHT22;14342;50.960;13.880;2023-06-19T01:35:59;19.10;99.90
26745;DHT22;14342;50.960;13.880;2023-06-19T01:37:01;19.10;99.90
26745;DHT22;14342;50.960;13.880;2023-06-19T01:38:07;19.20;99.90
26745;DHT22;14342;50.960;13.880;2023-06-19T01:39:08;19.20;99.90
26745;DHT22;14342;50.960;13.880;2023-06-19T01:40:10;19.20;99.90
26745;DHT22;14342;50.960;13.880;2023-06-19T01:41:11;19.20;99.90
26745;DHT22;14342;50.960;13.880;2023-06-19T01:42:13;19.30;99.90
26745;DHT22;14342;50.960;13.880;2023-06-19T01:43:14;19.30;99.90
26745;DHT22;14342;50.960;13.880;2023-06-19T01:44:17;19.30;99.90
26745;DHT22;14342;50.960;13.880;2023-06-19T01:45:18;19.30;99.90
26745;DHT22;14342;50.960;13.880;2023-06-19T01:46:19;19.30;99.90
26745;DHT22;14342;50.960;13.880;2023-06-19T01:47:20;19.20;99.90
26745;DHT22;14342;50.960;13.880;2023-06-19T01:48:22;19.20;99.90
26745;DHT22;14342;50.960;13.880;2023-06-19T01:49:22;19.10;99.90
26745;DHT22;14342;50.960;13.880;2023-06-19T01:50:24;19.10;99.90
26745;DHT22;14342;50.960;13.880;2023-06-19T01:51:25;19.00;99.90
26745;DHT22;14342;50.960;13.880;2023-06-19T01:52:27;19.00;99.90
26745;DHT22;14342;50.960;13.880;2023-06-19T01:53:29;18.90;99.90
26745;DHT22;14342;50.960;13.880;2023-06-19T01:54:31;18.90;99.90
26745;DHT22;14342;50.960;13.880;2023-06-19T01:55:32;18.90;99.90
26745;DHT22;14342;50.960;13.880;2023-06-19T01:56:33;18.90;99.90
26745;DHT22;14342;50.960;13.880;2023-06-19T01:57:34;18.80;99.90
26745;DHT22;14342;50.960;13.880;2023-06-19T01:58:36;18.90;99.90
26745;DHT22;14342;50.960;13.880;2023-06-19T01:59:37;18.90;99.90
26745;DHT22;14342;50.960;13.880;2023-06-19T02:00:38;18.90;99.90
26745;DHT22;14342;50.960;13.880;2023-06-19T02:01:39;18.90;99.90
26745;DHT22;14342;50.960;13.880;2023-06-19T02:02:40;18.90;99.90
26745;DHT22;14342;50.960;13.880;2023-06-19T02:03:41;18.90;99.90
26745;DHT22;14342;50.960;13.880;2023-06-19T02:04:43;18.90;99.90
26745;DHT22;14342;50.960;13.880;2023-06-19T02:05:43;18.90;99.90
26745;DHT22;14342;50.960;13.880;2023-06-19T02:06:45;18.90;99.90
26745;DHT22;14342;50.960;13.880;2023-06-19T02:07:46;18.90;99.90
26745;DHT22;14342;50.960;13.880;2023-06-19T02:08:49;18.80;99.90
26745;DHT22;14342;50.960;13.880;2023-06-19T02:09:49;18.80;99.90
26745;DHT22;14342;50.960;13.880;2023-06-19T02:10:51;18.80;99.90
26745;DHT22;14342;50.960;13.880;2023-06-19T02:11:51;18.80;99.90
26745;DHT22;14342;50.960;13.880;2023-06-19T02:12:53;18.70;99.90
26745;DHT22;14342;50.960;13.880;2023-06-19T02:13:54;18.70;99.90
26745;DHT22;14342;50.960;13.880;2023-06-19T02:14:55;18.70;99.90
26745;DHT22;14342;50.960;13.880;2023-06-19T02:15:56;18.70;99.90
26745;DHT22;14342;50.960;13.880;2023-06-19T02:16:57;18.70;99.90
26745;DHT22;14342;50.960;13.880;2023-06-19T02:17:59;18.70;99.90
26745;DHT22;14342;50.960;13.880;2023-06-19T02:19:01;18.90;99.90
26745;DHT22;14342;50.960;13.880;2023-06-19T02:20:01;18.70;99.90
26745;DHT22;14342;50.960;13.880;2023-06-19T02:21:06;18.70;99.90
26745;DHT22;14342;50.960;13.880;2023-06-19T02:22:06;18.60;99.90
26745;DHT22;14342;50.960;13.880;2023-06-19T02:23:08;18.60;99.90
26745;DHT22;14342;50.960;13.880;2023-06-19T02:24:10;18.60;99.90
26745;DHT22;14342;50.960;13.880;2023-06-19T02:25:11;18.70;99.90
26745;DHT22;14342;50.960;13.880;2023-06-19T02:26:12;18.70;99.90
26745;DHT22;14342;50.960;13.880;2023-06-19T02:27:14;18.70;99.90
26745;DHT22;14342;50.960;13.880;2023-06-19T02:28:16;18.70;99.90
26745;DHT22;14342;50.960;13.880;2023-06-19T02:29:17;18.70;99.90
26745;DHT22;14342;50.960;13.880;2023-06-19T02:30:18;18.80;99.90
26745;DHT22;14342;50.960;13.880;2023-06-19T02:31:20;18.80;99.90
26745;DHT22;14342;50.960;13.880;2023-06-19T02:32:21;18.80;99.90
26745;DHT22;14342;50.960;13.880;2023-06-19T02:33:22;18.90;99.90
26745;DHT22;14342;50.960;13.880;2023-06-19T02:34:23;18.80;99.90
26745;DHT22;14342;50.960;13.880;2023-06-19T02:35:26;18.80;99.90
26745;DHT22;14342;50.960;13.880;2023-06-19T02:36:27;18.80;99.90
26745;DHT22;14342;50.960;13.880;2023-06-19T02:37:30;18.80;99.90
26745;DHT22;14342;50.960;13.880;2023-06-19T02:38:31;18.90;99.90
26745;DHT22;14342;50.960;13.880;2023-06-19T02:39:33;18.90;99.90
26745;DHT22;14342;50.960;13.880;2023-06-19T02:40:34;18.90;99.90
26745;DHT22;14342;50.960;13.880;2023-06-19T02:41:36;18.80;99.90
26745;DHT22;14342;50.960;13.880;2023-06-19T02:42:38;18.80;99.90
26745;DHT22;14342;50.960;13.880;2023-06-19T02:43:40;18.90;99.90
26745;DHT22;14342;50.960;13.880;2023-06-19T02:44:41;18.90;99.90
26745;DHT22;14342;50.960;13.880;2023-06-19T02:45:43;18.90;99.90
26745;DHT22;14342;50.960;13.880;2023-06-19T02:46:44;18.90;99.90
26745;DHT22;14342;50.960;13.880;2023-06-19T02:47:45;18.80;99.90
26745;DHT22;14342;50.960;13.880;2023-06-19T02:48:46;18.80;99.90
26745;DHT22;14342;50.960;13.880;2023-06-19T02:49:48;18.60;99.90
26745;DHT22;14342;50.960;13.880;2023-06-19T02:50:48;18.60;99.90
26745;DHT22;14342;50.960;13.880;2023-06-19T02:51:50;18.60;99.90
26745;DHT22;14342;50.960;13.880;2023-06-19T02:52:51;18.60;99.90
26745;DHT22;14342;50.960;13.880;2023-06-19T02:53:52;18.70;99.90
26745;DHT22;14342;50.960;13.880;2023-06-19T02:54:54;18.70;99.90
26745;DHT22;14342;50.960;13.880;2023-06-19T02:55:56;18.60;99.90
26745;DHT22;14342;50.960;13.880;2023-06-19T02:56:56;18.70;99.90
26745;DHT22;14342;50.960;13.880;2023-06-19T02:58:00;18.60;99.90
26745;DHT22;14342;50.960;13.880;2023-06-19T02:59:00;18.50;99.90
26745;DHT22;14342;50.960;13.880;2023-06-19T03:00:02;18.50;99.90
26745;DHT22;14342;50.960;13.880;2023-06-19T03:01:06;18.60;99.90
26745;DHT22;14342;50.960;13.880;2023-06-19T03:02:09;18.50;99.90
26745;DHT22;14342;50.960;13.880;2023-06-19T03:03:09;18.50;99.90
26745;DHT22;14342;50.960;13.880;2023-06-19T03:04:12;18.40;99.90
26745;DHT22;14342;50.960;13.880;2023-06-19T03:05:13;18.40;99.90
26745;DHT22;14342;50.960;13.880;2023-06-19T03:06:16;18.40;99.90
26745;DHT22;14342;50.960;13.880;2023-06-19T03:07:18;18.40;99.90
26745;DHT22;14342;50.960;13.880;2023-06-19T03:08:19;18.40;99.90
26745;DHT22;14342;50.960;13.880;2023-06-19T03:09:20;18.30;99.90
26745;DHT22;14342;50.960;13.880;2023-06-19T03:10:23;18.40;99.90
26745;DHT22;14342;50.960;13.880;2023-06-19T03:11:24;18.40;99.90
26745;DHT22;14342;50.960;13.880;2023-06-19T03:12:25;18.30;99.90
26745;DHT22;14342;50.960;13.880;2023-06-19T03:13:26;18.30;99.90
26745;DHT22;14342;50.960;13.880;2023-06-19T03:14:28;18.40;99.90
26745;DHT22;14342;50.960;13.880;2023-06-19T03:15:28;18.30;99.90
26745;DHT22;14342;50.960;13.880;2023-06-19T03:16:30;18.30;99.90
26745;DHT22;14342;50.960;13.880;2023-06-19T03:17:30;18.20;99.90
26745;DHT22;14342;50.960;13.880;2023-06-19T03:18:32;18.30;99.90
26745;DHT22;14342;50.960;13.880;2023-06-19T03:19:33;18.50;99.90
26745;DHT22;14342;50.960;13.880;2023-06-19T03:20:34;18.10;99.90
26745;DHT22;14342;50.960;13.880;2023-06-19T03:21:35;18.10;99.90
26745;DHT22;14342;50.960;13.880;2023-06-19T03:22:37;18.10;99.90
26745;DHT22;14342;50.960;13.880;2023-06-19T03:23:38;18.10;99.90
26745;DHT22;14342;50.960;13.880;2023-06-19T03:24:41;18.10;99.90
26745;DHT22;14342;50.960;13.880;2023-06-19T03:25:43;18.20;99.90
26745;DHT22;14342;50.960;13.880;2023-06-19T03:26:45;18.10;99.90
26745;DHT22;14342;50.960;13.880;2023-06-19T03:27:45;18.10;99.90
26745;DHT22;14342;50.960;13.880;2023-06-19T03:28:49;18.10;99.90
26745;DHT22;14342;50.960;13.880;2023-06-19T03:29:50;18.20;99.90
26745;DHT22;14342;50.960;13.880;2023-06-19T03:30:52;18.30;99.90
26745;DHT22;14342;50.960;13.880;2023-06-19T03:31:52;18.30;99.90
26745;DHT22;14342;50.960;13.880;2023-06-19T03:32:54;18.30;99.90
26745;DHT22;14342;50.960;13.880;2023-06-19T03:33:54;18.40;99.90
26745;DHT22;14342;50.960;13.880;2023-06-19T03:34:56;18.40;99.90
26745;DHT22;14342;50.960;13.880;2023-06-19T03:35:57;18.40;99.90
26745;DHT22;14342;50.960;13.880;2023-06-19T03:36:58;18.40;99.90
26745;DHT22;14342;50.960;13.880;2023-06-19T03:38:01;18.50;99.90
26745;DHT22;14342;50.960;13.880;2023-06-19T03:39:01;18.60;99.90
26745;DHT22;14342;50.960;13.880;2023-06-19T03:40:03;18.30;99.90
26745;DHT22;14342;50.960;13.880;2023-06-19T03:41:07;18.70;99.90
26745;DHT22;14342;50.960;13.880;2023-06-19T03:42:08;18.70;99.90
26745;DHT22;14342;50.960;13.880;2023-06-19T03:43:09;18.70;99.90
26745;DHT22;14342;50.960;13.880;2023-06-19T03:44:11;18.70;99.90
26745;DHT22;14342;50.960;13.880;2023-06-19T03:45:12;18.70;99.90
26745;DHT22;14342;50.960;13.880;2023-06-19T03:46:13;18.70;99.90
26745;DHT22;14342;50.960;13.880;2023-06-19T03:47:14;18.50;99.90
26745;DHT22;14342;50.960;13.880;2023-06-19T03:48:16;18.40;99.90
26745;DHT22;14342;50.960;13.880;2023-06-19T03:49:17;18.40;99.90
26745;DHT22;14342;50.960;13.880;2023-06-19T03:50:19;18.50;99.90
26745;DHT22;14342;50.960;13.880;2023-06-19T03:51:20;18.40;99.90
26745;DHT22;14342;50.960;13.880;2023-06-19T03:52:21;18.40;99.90
26745;DHT22;14342;50.960;13.880;2023-06-19T03:53:22;18.50;99.90
26745;DHT22;14342;50.960;13.880;2023-06-19T03:54:23;18.60;99.90
26745;DHT22;14342;50.960;13.880;2023-06-19T03:55:25;18.60;99.90
26745;DHT22;14342;50.960;13.880;2023-06-19T03:56:28;18.70;99.90
26745;DHT22;14342;50.960;13.880;2023-06-19T03:57:29;18.70;99.90
26745;DHT22;14342;50.960;13.880;2023-06-19T03:58:30;18.70;99.90
26745;DHT22;14342;50.960;13.880;2023-06-19T03:59:31;18.70;99.90
26745;DHT22;14342;50.960;13.880;2023-06-19T04:00:32;18.70;99.90
26745;DHT22;14342;50.960;13.880;2023-06-19T04:01:36;18.70;99.90
26745;DHT22;14342;50.960;13.880;2023-06-19T04:02:38;18.70;99.90
26745;DHT22;14342;50.960;13.880;2023-06-19T04:03:38;18.60;99.90
26745;DHT22;14342;50.960;13.880;2023-06-19T04:04:40;18.60;99.90
26745;DHT22;14342;50.960;13.880;2023-06-19T04:05:40;18.60;99.90
26745;DHT22;14342;50.960;13.880;2023-06-19T04:06:43;18.60;99.90
26745;DHT22;14342;50.960;13.880;2023-06-19T04:07:44;18.60;99.90
26745;DHT22;14342;50.960;13.880;2023-06-19T04:08:45;18.50;99.90
26745;DHT22;14342;50.960;13.880;2023-06-19T04:09:46;18.60;99.90
26745;DHT22;14342;50.960;13.880;2023-06-19T04:10:47;18.60;99.90
26745;DHT22;14342;50.960;13.880;2023-06-19T04:11:49;18.60;99.90
26745;DHT22;14342;50.960;13.880;2023-06-19T04:12:51;18.40;99.90
26745;DHT22;14342;50.960;13.880;2023-06-19T04:13:52;18.40;99.90
26745;DHT22;14342;50.960;13.880;2023-06-19T04:14:53;18.40;99.90
26745;DHT22;14342;50.960;13.880;2023-06-19T04:15:54;18.40;99.90
26745;DHT22;14342;50.960;13.880;2023-06-19T04:16:56;18.40;99.90
26745;DHT22;14342;50.960;13.880;2023-06-19T04:17:56;18.50;99.90
26745;DHT22;14342;50.960;13.880;2023-06-19T04:18:58;18.60;99.90
26745;DHT22;14342;50.960;13.880;2023-06-19T04:19:59;18.70;99.90
26745;DHT22;14342;50.960;13.880;2023-06-19T04:21:00;18.70;99.90
26745;DHT22;14342;50.960;13.880;2023-06-19T04:22:01;18.60;99.90
26745;DHT22;14342;50.960;13.880;2023-06-19T04:23:03;18.70;99.90
26745;DHT22;14342;50.960;13.880;2023-06-19T04:24:04;18.70;99.90
26745;DHT22;14342;50.960;13.880;2023-06-19T04:25:09;18.70;99.90
26745;DHT22;14342;50.960;13.880;2023-06-19T04:26:10;18.80;99.90
26745;DHT22;14342;50.960;13.880;2023-06-19T04:27:13;18.90;99.90
26745;DHT22;14342;50.960;13.880;2023-06-19T04:28:14;18.80;99.90
26745;DHT22;14342;50.960;13.880;2023-06-19T04:29:16;18.80;99.90
26745;DHT22;14342;50.960;13.880;2023-06-19T04:30:17;18.90;99.90
26745;DHT22;14342;50.960;13.880;2023-06-19T04:31:21;18.90;99.90
26745;DHT22;14342;50.960;13.880;2023-06-19T04:32:21;18.90;99.90
26745;DHT22;14342;50.960;13.880;2023-06-19T04:33:23;18.90;99.90
26745;DHT22;14342;50.960;13.880;2023-06-19T04:34:25;18.80;99.90
26745;DHT22;14342;50.960;13.880;2023-06-19T04:35:26;18.90;99.90
26745;DHT22;14342;50.960;13.880;2023-06-19T04:36:27;18.80;99.90
26745;DHT22;14342;50.960;13.880;2023-06-19T04:37:32;18.90;99.90
26745;DHT22;14342;50.960;13.880;2023-06-19T04:38:32;19.10;99.90
26745;DHT22;14342;50.960;13.880;2023-06-19T04:39:34;18.90;99.90
26745;DHT22;14342;50.960;13.880;2023-06-19T04:40:34;19.00;99.90
26745;DHT22;14342;50.960;13.880;2023-06-19T04:41:36;19.10;99.90
26745;DHT22;14342;50.960;13.880;2023-06-19T04:42:40;19.10;99.90
26745;DHT22;14342;50.960;13.880;2023-06-19T04:43:41;19.10;99.90
26745;DHT22;14342;50.960;13.880;2023-06-19T04:44:42;19.30;99.90
26745;DHT22;14342;50.960;13.880;2023-06-19T04:45:43;19.30;99.90
26745;DHT22;14342;50.960;13.880;2023-06-19T04:46:44;19.30;99.90
26745;DHT22;14342;50.960;13.880;2023-06-19T04:47:47;19.40;99.90
26745;DHT22;14342;50.960;13.880;2023-06-19T04:48:47;19.40;99.90
26745;DHT22;14342;50.960;13.880;2023-06-19T04:49:51;19.40;99.90
26745;DHT22;14342;50.960;13.880;2023-06-19T04:50:51;19.40;99.90
26745;DHT22;14342;50.960;13.880;2023-06-19T04:51:53;19.40;99.90
26745;DHT22;14342;50.960;13.880;2023-06-19T04:52:53;19.50;99.90
26745;DHT22;14342;50.960;13.880;2023-06-19T04:53:55;19.60;99.90
26745;DHT22;14342;50.960;13.880;2023-06-19T04:54:56;19.70;99.90
26745;DHT22;14342;50.960;13.880;2023-06-19T04:55:58;19.60;99.90
26745;DHT22;14342;50.960;13.880;2023-06-19T04:56:59;19.60;99.90
26745;DHT22;14342;50.960;13.880;2023-06-19T04:58:02;19.60;99.90
26745;DHT22;14342;50.960;13.880;2023-06-19T04:59:02;19.70;99.90
26745;DHT22;14342;50.960;13.880;2023-06-19T05:00:04;19.70;99.90
26745;DHT22;14342;50.960;13.880;2023-06-19T05:01:06;19.70;99.90
26745;DHT22;14342;50.960;13.880;2023-06-19T05:02:10;19.80;99.90
26745;DHT22;14342;50.960;13.880;2023-06-19T05:03:11;19.70;99.90
26745;DHT22;14342;50.960;13.880;2023-06-19T05:04:14;19.70;99.90
26745;DHT22;14342;50.960;13.880;2023-06-19T05:05:14;19.70;99.90
26745;DHT22;14342;50.960;13.880;2023-06-19T05:06:16;19.80;99.90
26745;DHT22;14342;50.960;13.880;2023-06-19T05:07:17;19.80;99.90
26745;DHT22;14342;50.960;13.880;2023-06-19T05:08:19;19.80;99.90
26745;DHT22;14342;50.960;13.880;2023-06-19T05:09:20;19.80;99.90
26745;DHT22;14342;50.960;13.880;2023-06-19T05:10:21;19.90;99.90
26745;DHT22;14342;50.960;13.880;2023-06-19T05:11:22;19.90;99.90
26745;DHT22;14342;50.960;13.880;2023-06-19T05:12:24;19.90;99.90
26745;DHT22;14342;50.960;13.880;2023-06-19T05:13:25;19.90;99.90
26745;DHT22;14342;50.960;13.880;2023-06-19T05:14:27;19.90;99.90
26745;DHT22;14342;50.960;13.880;2023-06-19T05:15:28;19.90;99.90
26745;DHT22;14342;50.960;13.880;2023-06-19T05:16:29;20.00;99.90
26745;DHT22;14342;50.960;13.880;2023-06-19T05:17:30;20.00;99.90
26745;DHT22;14342;50.960;13.880;2023-06-19T05:18:31;20.10;99.90
26745;DHT22;14342;50.960;13.880;2023-06-19T05:19:32;20.00;99.90
26745;DHT22;14342;50.960;13.880;2023-06-19T05:20:33;20.10;99.90
26745;DHT22;14342;50.960;13.880;2023-06-19T05:21:34;20.10;99.90
26745;DHT22;14342;50.960;13.880;2023-06-19T05:22:35;20.10;99.90
26745;DHT22;14342;50.960;13.880;2023-06-19T05:23:37;20.10;99.90
26745;DHT22;14342;50.960;13.880;2023-06-19T05:24:39;20.20;99.90
26745;DHT22;14342;50.960;13.880;2023-06-19T05:25:40;20.20;99.90
26745;DHT22;14342;50.960;13.880;2023-06-19T05:26:43;20.20;99.90
26745;DHT22;14342;50.960;13.880;2023-06-19T05:27:43;20.30;99.90
26745;DHT22;14342;50.960;13.880;2023-06-19T05:28:46;20.30;99.90
26745;DHT22;14342;50.960;13.880;2023-06-19T05:29:47;20.30;99.90
26745;DHT22;14342;50.960;13.880;2023-06-19T05:30:49;20.20;99.90
26745;DHT22;14342;50.960;13.880;2023-06-19T05:31:50;20.30;99.90
26745;DHT22;14342;50.960;13.880;2023-06-19T05:32:52;20.40;99.90
26745;DHT22;14342;50.960;13.880;2023-06-19T05:33:52;20.50;99.90
26745;DHT22;14342;50.960;13.880;2023-06-19T05:34:54;20.60;99.90
26745;DHT22;14342;50.960;13.880;2023-06-19T05:35:54;20.60;99.90
26745;DHT22;14342;50.960;13.880;2023-06-19T05:36:58;20.60;99.90
26745;DHT22;14342;50.960;13.880;2023-06-19T05:38:01;20.40;99.90
26745;DHT22;14342;50.960;13.880;2023-06-19T05:39:02;20.40;99.90
26745;DHT22;14342;50.960;13.880;2023-06-19T05:40:03;20.30;99.90
26745;DHT22;14342;50.960;13.880;2023-06-19T05:41:06;20.40;99.90
26745;DHT22;14342;50.960;13.880;2023-06-19T05:42:07;20.50;99.90
26745;DHT22;14342;50.960;13.880;2023-06-19T05:43:08;20.60;99.90
26745;DHT22;14342;50.960;13.880;2023-06-19T05:44:10;20.60;99.90
26745;DHT22;14342;50.960;13.880;2023-06-19T05:45:15;20.60;99.90
26745;DHT22;14342;50.960;13.880;2023-06-19T05:46:15;20.70;99.90
26745;DHT22;14342;50.960;13.880;2023-06-19T05:47:17;20.70;99.90
26745;DHT22;14342;50.960;13.880;2023-06-19T05:48:20;20.60;99.90
26745;DHT22;14342;50.960;13.880;2023-06-19T05:49:22;20.60;99.90
26745;DHT22;14342;50.960;13.880;2023-06-19T05:50:22;20.60;99.90
26745;DHT22;14342;50.960;13.880;2023-06-19T05:51:24;20.70;99.90
26745;DHT22;14342;50.960;13.880;2023-06-19T05:52:24;20.70;99.90
26745;DHT22;14342;50.960;13.880;2023-06-19T05:53:26;20.70;99.90
26745;DHT22;14342;50.960;13.880;2023-06-19T05:54:27;20.70;99.90
26745;DHT22;14342;50.960;13.880;2023-06-19T05:55:28;20.80;99.90
26745;DHT22;14342;50.960;13.880;2023-06-19T05:56:29;20.80;99.90
26745;DHT22;14342;50.960;13.880;2023-06-19T05:57:30;20.80;99.90
26745;DHT22;14342;50.960;13.880;2023-06-19T05:58:32;20.80;99.90
26745;DHT22;14342;50.960;13.880;2023-06-19T05:59:35;20.80;99.90
26745;DHT22;14342;50.960;13.880;2023-06-19T06:00:35;20.80;99.90
26745;DHT22;14342;50.960;13.880;2023-06-19T06:01:37;20.80;99.90
26745;DHT22;14342;50.960;13.880;2023-06-19T06:02:38;20.90;99.90
26745;DHT22;14342;50.960;13.880;2023-06-19T06:03:39;20.90;99.90
26745;DHT22;14342;50.960;13.880;2023-06-19T06:04:40;20.90;99.90
26745;DHT22;14342;50.960;13.880;2023-06-19T06:05:41;20.80;99.90
26745;DHT22;14342;50.960;13.880;2023-06-19T06:06:43;20.90;99.90
26745;DHT22;14342;50.960;13.880;2023-06-19T06:07:45;20.90;99.90
26745;DHT22;14342;50.960;13.880;2023-06-19T06:08:45;21.00;99.90
26745;DHT22;14342;50.960;13.880;2023-06-19T06:09:47;21.00;99.90
26745;DHT22;14342;50.960;13.880;2023-06-19T06:10:47;20.90;99.90
26745;DHT22;14342;50.960;13.880;2023-06-19T06:11:49;21.00;99.90
26745;DHT22;14342;50.960;13.880;2023-06-19T06:12:49;21.00;99.90
26745;DHT22;14342;50.960;13.880;2023-06-19T06:13:51;21.10;99.90
26745;DHT22;14342;50.960;13.880;2023-06-19T06:14:53;21.20;99.90
26745;DHT22;14342;50.960;13.880;2023-06-19T06:15:54;21.20;99.90
26745;DHT22;14342;50.960;13.880;2023-06-19T06:16:56;21.20;99.90
26745;DHT22;14342;50.960;13.880;2023-06-19T06:17:56;21.20;99.90
26745;DHT22;14342;50.960;13.880;2023-06-19T06:18:58;21.40;99.90
26745;DHT22;14342;50.960;13.880;2023-06-19T06:19:59;21.20;99.90
26745;DHT22;14342;50.960;13.880;2023-06-19T06:21:00;21.20;99.90
26745;DHT22;14342;50.960;13.880;2023-06-19T06:22:01;21.30;99.90
26745;DHT22;14342;50.960;13.880;2023-06-19T06:23:03;21.20;99.90